sensor_id;sensor_type;location;lat;lon;timestamp;P1;durP1;ratioP1;P2;durP2;ratioP2
22191;SDS011;11261;52.456;10.850;2023-12-20T00:02:23;4.90;;;3.28;;
22191;SDS011;11261;52.456;10.850;2023-12-20T00:04:51;4.28;;;3.35;;
22191;SDS011;11261;52.456;10.850;2023-12-20T00:07:22;4.90;;;3.10;;
22191;SDS011;11261;52.456;10.850;2023-12-20T00:09:51;4.63;;;3.50;;
22191;SDS011;11261;52.456;10.850;2023-12-20T00:12:19;4.25;;;3.15;;
22191;SDS011;11261;52.456;10.850;2023-12-20T00:14:47;4.88;;;3.13;;
22191;SDS011;11261;52.456;10.850;2023-12-20T00:17:15;4.82;;;2.90;;
22191;SDS011;11261;52.456;10.850;2023-12-20T00:19:44;4.22;;;3.15;;
22191;SDS011;11261;52.456;10.850;2023-12-20T00:22:12;4.25;;;2.90;;
22191;SDS011;11261;52.456;10.850;2023-12-20T00:24:42;3.75;;;2.67;;
22191;SDS011;11261;52.456;10.850;2023-12-20T00:27:11;3.75;;;2.90;;
22191;SDS011;11261;52.456;10.850;2023-12-20T00:29:40;3.90;;;2.97;;
22191;SDS011;11261;52.456;10.850;2023-12-20T00:32:09;3.60;;;2.58;;
22191;SDS011;11261;52.456;10.850;2023-12-20T00:34:37;4.70;;;3.08;;
22191;SDS011;11261;52.456;10.850;2023-12-20T00:37:07;6.63;;;2.97;;
22191;SDS011;11261;52.456;10.850;2023-12-20T00:39:35;3.20;;;2.40;;
22191;SDS011;11261;52.456;10.850;2023-12-20T00:42:05;3.78;;;2.30;;
22191;SDS011;11261;52.456;10.850;2023-12-20T00:44:34;3.20;;;2.40;;
22191;SDS011;11261;52.456;10.850;2023-12-20T00:47:03;1.83;;;1.17;;
22191;SDS011;11261;52.456;10.850;2023-12-20T00:49:31;4.35;;;2.00;;
22191;SDS011;11261;52.456;10.850;2023-12-20T00:52:00;3.33;;;2.05;;
22191;SDS011;11261;52.456;10.850;2023-12-20T00:54:29;4.00;;;1.80;;
22191;SDS011;11261;52.456;10.850;2023-12-20T00:56:57;2.20;;;1.58;;
22191;SDS011;11261;52.456;10.850;2023-12-20T00:59:27;4.63;;;1.85;;
22191;SDS011;11261;52.456;10.850;2023-12-20T01:01:56;5.78;;;1.70;;
22191;SDS011;11261;52.456;10.850;2023-12-20T01:04:25;5.90;;;1.80;;
22191;SDS011;11261;52.456;10.850;2023-12-20T01:06:53;6.57;;;1.77;;
22191;SDS011;11261;52.456;10.850;2023-12-20T01:09:22;5.32;;;1.70;;
22191;SDS011;11261;52.456;10.850;2023-12-20T01:11:52;2.58;;;1.50;;
22191;SDS011;11261;52.456;10.850;2023-12-20T01:14:21;2.30;;;1.50;;
22191;SDS011;11261;52.456;10.850;2023-12-20T01:16:51;8.30;;;1.77;;
22191;SDS011;11261;52.456;10.850;2023-12-20T01:19:20;5.05;;;1.83;;
22191;SDS011;11261;52.456;10.850;2023-12-20T01:21:49;7.57;;;1.63;;
22191;SDS011;11261;52.456;10.850;2023-12-20T01:24:17;4.65;;;1.30;;
22191;SDS011;11261;52.456;10.850;2023-12-20T01:26:46;4.05;;;1.83;;
22191;SDS011;11261;52.456;10.850;2023-12-20T01:29:14;3.00;;;1.83;;
22191;SDS011;11261;52.456;10.850;2023-12-20T01:31:43;5.10;;;1.73;;
22191;SDS011;11261;52.456;10.850;2023-12-20T01:34:13;2.22;;;1.27;;
22191;SDS011;11261;52.456;10.850;2023-12-20T01:36:42;4.07;;;1.35;;
22191;SDS011;11261;52.456;10.850;2023-12-20T01:39:11;4.85;;;1.60;;
22191;SDS011;11261;52.456;10.850;2023-12-20T01:41:53;3.72;;;1.08;;
22191;SDS011;11261;52.456;10.850;2023-12-20T01:44:22;5.07;;;1.48;;
22191;SDS011;11261;52.456;10.850;2023-12-20T01:46:50;7.13;;;1.30;;
22191;SDS011;11261;52.456;10.850;2023-12-20T01:49:21;5.38;;;1.38;;
22191;SDS011;11261;52.456;10.850;2023-12-20T01:51:50;4.95;;;1.50;;
22191;SDS011;11261;52.456;10.850;2023-12-20T01:54:18;5.15;;;1.60;;
22191;SDS011;11261;52.456;10.850;2023-12-20T01:56:48;4.95;;;1.42;;
22191;SDS011;11261;52.456;10.850;2023-12-20T01:59:17;4.30;;;1.10;;
22191;SDS011;11261;52.456;10.850;2023-12-20T02:01:47;4.20;;;1.40;;
22191;SDS011;11261;52.456;10.850;2023-12-20T02:04:16;3.83;;;1.33;;
22191;SDS011;11261;52.456;10.850;2023-12-20T02:06:47;4.90;;;1.30;;
22191;SDS011;11261;52.456;10.850;2023-12-20T02:09:17;5.22;;;1.60;;
22191;SDS011;11261;52.456;10.850;2023-12-20T02:11:46;5.43;;;1.10;;
22191;SDS011;11261;52.456;10.850;2023-12-20T02:14:15;3.75;;;1.35;;
22191;SDS011;11261;52.456;10.850;2023-12-20T02:16:43;4.03;;;1.33;;
22191;SDS011;11261;52.456;10.850;2023-12-20T02:19:13;4.00;;;1.30;;
22191;SDS011;11261;52.456;10.850;2023-12-20T02:21:44;6.45;;;1.50;;
22191;SDS011;11261;52.456;10.850;2023-12-20T02:24:12;5.35;;;1.50;;
22191;SDS011;11261;52.456;10.850;2023-12-20T02:26:40;2.75;;;1.40;;
22191;SDS011;11261;52.456;10.850;2023-12-20T02:29:12;7.60;;;1.75;;
22191;SDS011;11261;52.456;10.850;2023-12-20T02:31:41;8.13;;;1.83;;
22191;SDS011;11261;52.456;10.850;2023-12-20T02:34:09;6.30;;;1.30;;
22191;SDS011;11261;52.456;10.850;2023-12-20T02:36:38;6.78;;;2.55;;
22191;SDS011;11261;52.456;10.850;2023-12-20T02:39:07;5.80;;;1.40;;
22191;SDS011;11261;52.456;10.850;2023-12-20T02:41:36;6.32;;;1.35;;
22191;SDS011;11261;52.456;10.850;2023-12-20T02:44:05;4.63;;;1.30;;
22191;SDS011;11261;52.456;10.850;2023-12-20T02:46:33;6.25;;;1.85;;
22191;SDS011;11261;52.456;10.850;2023-12-20T02:49:02;6.55;;;1.90;;
22191;SDS011;11261;52.456;10.850;2023-12-20T02:51:30;6.20;;;1.48;;
22191;SDS011;11261;52.456;10.850;2023-12-20T02:53:59;7.03;;;1.40;;
22191;SDS011;11261;52.456;10.850;2023-12-20T02:56:29;7.68;;;1.45;;
22191;SDS011;11261;52.456;10.850;2023-12-20T02:58:57;7.70;;;1.67;;
22191;SDS011;11261;52.456;10.850;2023-12-20T03:01:27;5.28;;;1.58;;
22191;SDS011;11261;52.456;10.850;2023-12-20T03:03:56;3.55;;;1.45;;
22191;SDS011;11261;52.456;10.850;2023-12-20T03:06:24;5.40;;;1.45;;
22191;SDS011;11261;52.456;10.850;2023-12-20T03:08:53;8.48;;;1.65;;
22191;SDS011;11261;52.456;10.850;2023-12-20T03:11:21;6.63;;;1.60;;
22191;SDS011;11261;52.456;10.850;2023-12-20T03:13:55;3.47;;;1.70;;
22191;SDS011;11261;52.456;10.850;2023-12-20T03:16:24;10.57;;;1.73;;
22191;SDS011;11261;52.456;10.850;2023-12-20T03:18:52;11.88;;;1.90;;
22191;SDS011;11261;52.456;10.850;2023-12-20T03:21:21;8.20;;;1.60;;
22191;SDS011;11261;52.456;10.850;2023-12-20T03:23:49;5.65;;;1.33;;
22191;SDS011;11261;52.456;10.850;2023-12-20T03:26:17;7.35;;;1.55;;
22191;SDS011;11261;52.456;10.850;2023-12-20T03:28:46;5.57;;;1.58;;
22191;SDS011;11261;52.456;10.850;2023-12-20T03:31:16;6.88;;;1.75;;
22191;SDS011;11261;52.456;10.850;2023-12-20T03:33:44;6.68;;;1.88;;
22191;SDS011;11261;52.456;10.850;2023-12-20T03:36:13;6.15;;;1.85;;
22191;SDS011;11261;52.456;10.850;2023-12-20T03:38:42;7.65;;;1.60;;
22191;SDS011;11261;52.456;10.850;2023-12-20T03:41:10;3.72;;;1.23;;
22191;SDS011;11261;52.456;10.850;2023-12-20T03:43:39;4.40;;;1.52;;
22191;SDS011;11261;52.456;10.850;2023-12-20T03:46:08;7.03;;;1.48;;
22191;SDS011;11261;52.456;10.850;2023-12-20T03:48:38;6.57;;;1.30;;
22191;SDS011;11261;52.456;10.850;2023-12-20T03:51:06;9.40;;;1.45;;
22191;SDS011;11261;52.456;10.850;2023-12-20T03:53:35;5.70;;;1.33;;
22191;SDS011;11261;52.456;10.850;2023-12-20T03:56:04;5.95;;;1.88;;
22191;SDS011;11261;52.456;10.850;2023-12-20T03:58:33;8.88;;;1.75;;
22191;SDS011;11261;52.456;10.850;2023-12-20T04:01:01;5.30;;;1.60;;
22191;SDS011;11261;52.456;10.850;2023-12-20T04:03:30;7.00;;;1.30;;
22191;SDS011;11261;52.456;10.850;2023-12-20T04:06:00;8.32;;;1.58;;
22191;SDS011;11261;52.456;10.850;2023-12-20T04:08:28;5.63;;;1.42;;
22191;SDS011;11261;52.456;10.850;2023-12-20T04:10:57;5.15;;;1.25;;
22191;SDS011;11261;52.456;10.850;2023-12-20T04:13:26;4.18;;;1.83;;
22191;SDS011;11261;52.456;10.850;2023-12-20T04:15:54;5.70;;;1.63;;
22191;SDS011;11261;52.456;10.850;2023-12-20T04:18:23;6.97;;;2.17;;
22191;SDS011;11261;52.456;10.850;2023-12-20T04:20:52;8.13;;;2.30;;
22191;SDS011;11261;52.456;10.850;2023-12-20T04:23:22;7.57;;;1.75;;
22191;SDS011;11261;52.456;10.850;2023-12-20T04:25:50;8.07;;;1.67;;
22191;SDS011;11261;52.456;10.850;2023-12-20T04:28:19;1.85;;;1.10;;
22191;SDS011;11261;52.456;10.850;2023-12-20T04:30:47;7.47;;;2.28;;
22191;SDS011;11261;52.456;10.850;2023-12-20T04:33:16;3.38;;;0.95;;
22191;SDS011;11261;52.456;10.850;2023-12-20T04:35:44;11.68;;;2.30;;
22191;SDS011;11261;52.456;10.850;2023-12-20T04:38:13;5.15;;;1.48;;
22191;SDS011;11261;52.456;10.850;2023-12-20T04:40:43;5.20;;;1.35;;
22191;SDS011;11261;52.456;10.850;2023-12-20T04:43:12;4.97;;;1.50;;
22191;SDS011;11261;52.456;10.850;2023-12-20T04:45:40;3.47;;;1.35;;
22191;SDS011;11261;52.456;10.850;2023-12-20T04:48:09;9.02;;;1.50;;
22191;SDS011;11261;52.456;10.850;2023-12-20T04:50:38;3.03;;;1.42;;
22191;SDS011;11261;52.456;10.850;2023-12-20T04:53:07;5.55;;;1.00;;
22191;SDS011;11261;52.456;10.850;2023-12-20T04:55:35;6.75;;;1.30;;
22191;SDS011;11261;52.456;10.850;2023-12-20T04:58:05;6.72;;;1.33;;
22191;SDS011;11261;52.456;10.850;2023-12-20T05:00:33;6.65;;;1.70;;
22191;SDS011;11261;52.456;10.850;2023-12-20T05:03:02;9.10;;;1.73;;
22191;SDS011;11261;52.456;10.850;2023-12-20T05:05:31;5.47;;;1.20;;
22191;SDS011;11261;52.456;10.850;2023-12-20T05:07:59;2.58;;;1.13;;
22191;SDS011;11261;52.456;10.850;2023-12-20T05:10:28;3.65;;;1.20;;
22191;SDS011;11261;52.456;10.850;2023-12-20T05:12:56;4.10;;;1.27;;
22191;SDS011;11261;52.456;10.850;2023-12-20T05:15:26;4.82;;;1.23;;
22191;SDS011;11261;52.456;10.850;2023-12-20T05:17:54;3.60;;;0.88;;
22191;SDS011;11261;52.456;10.850;2023-12-20T05:20:23;4.40;;;1.10;;
22191;SDS011;11261;52.456;10.850;2023-12-20T05:22:52;4.53;;;1.10;;
22191;SDS011;11261;52.456;10.850;2023-12-20T05:25:20;1.45;;;0.88;;
22191;SDS011;11261;52.456;10.850;2023-12-20T05:27:49;3.03;;;0.95;;
22191;SDS011;11261;52.456;10.850;2023-12-20T05:30:19;4.57;;;0.93;;
22191;SDS011;11261;52.456;10.850;2023-12-20T05:32:48;3.45;;;1.00;;
22191;SDS011;11261;52.456;10.850;2023-12-20T05:35:18;5.22;;;1.20;;
22191;SDS011;11261;52.456;10.850;2023-12-20T05:37:47;5.88;;;1.00;;
22191;SDS011;11261;52.456;10.850;2023-12-20T05:40:15;5.47;;;0.90;;
22191;SDS011;11261;52.456;10.850;2023-12-20T05:42:44;4.45;;;1.40;;
22191;SDS011;11261;52.456;10.850;2023-12-20T05:45:13;3.38;;;0.75;;
22191;SDS011;11261;52.456;10.850;2023-12-20T05:47:42;6.47;;;1.65;;
22191;SDS011;11261;52.456;10.850;2023-12-20T05:50:12;4.85;;;1.33;;
22191;SDS011;11261;52.456;10.850;2023-12-20T05:52:40;6.50;;;1.52;;
22191;SDS011;11261;52.456;10.850;2023-12-20T05:55:09;6.43;;;1.33;;
22191;SDS011;11261;52.456;10.850;2023-12-20T05:57:37;2.88;;;0.98;;
22191;SDS011;11261;52.456;10.850;2023-12-20T06:00:07;4.15;;;1.30;;
22191;SDS011;11261;52.456;10.850;2023-12-20T06:02:36;5.38;;;1.50;;
22191;SDS011;11261;52.456;10.850;2023-12-20T06:05:05;9.38;;;1.50;;
22191;SDS011;11261;52.456;10.850;2023-12-20T06:07:36;2.90;;;1.15;;
22191;SDS011;11261;52.456;10.850;2023-12-20T06:10:05;2.75;;;0.88;;
22191;SDS011;11261;52.456;10.850;2023-12-20T06:12:34;5.18;;;1.42;;
22191;SDS011;11261;52.456;10.850;2023-12-20T06:15:03;1.67;;;0.70;;
22191;SDS011;11261;52.456;10.850;2023-12-20T06:17:32;3.13;;;0.70;;
22191;SDS011;11261;52.456;10.850;2023-12-20T06:20:01;5.03;;;0.93;;
22191;SDS011;11261;52.456;10.850;2023-12-20T06:22:34;6.53;;;1.52;;
22191;SDS011;11261;52.456;10.850;2023-12-20T06:25:04;4.60;;;1.25;;
22191;SDS011;11261;52.456;10.850;2023-12-20T06:27:33;5.65;;;1.02;;
22191;SDS011;11261;52.456;10.850;2023-12-20T06:30:02;4.15;;;0.90;;
22191;SDS011;11261;52.456;10.850;2023-12-20T06:32:31;10.68;;;1.40;;
22191;SDS011;11261;52.456;10.850;2023-12-20T06:35:01;7.43;;;1.60;;
22191;SDS011;11261;52.456;10.850;2023-12-20T06:37:31;6.13;;;1.40;;
22191;SDS011;11261;52.456;10.850;2023-12-20T06:40:00;4.43;;;1.20;;
22191;SDS011;11261;52.456;10.850;2023-12-20T06:42:30;8.38;;;1.85;;
22191;SDS011;11261;52.456;10.850;2023-12-20T06:45:09;4.03;;;1.30;;
22191;SDS011;11261;52.456;10.850;2023-12-20T06:47:38;7.93;;;1.90;;
22191;SDS011;11261;52.456;10.850;2023-12-20T06:50:06;8.50;;;1.95;;
22191;SDS011;11261;52.456;10.850;2023-12-20T06:52:35;6.57;;;1.45;;
22191;SDS011;11261;52.456;10.850;2023-12-20T06:55:04;10.63;;;1.98;;
22191;SDS011;11261;52.456;10.850;2023-12-20T06:57:35;4.22;;;0.98;;
22191;SDS011;11261;52.456;10.850;2023-12-20T07:00:04;9.52;;;1.60;;
22191;SDS011;11261;52.456;10.850;2023-12-20T07:02:33;5.88;;;1.80;;
22191;SDS011;11261;52.456;10.850;2023-12-20T07:05:02;6.95;;;1.50;;
22191;SDS011;11261;52.456;10.850;2023-12-20T07:07:31;7.65;;;1.27;;
22191;SDS011;11261;52.456;10.850;2023-12-20T07:10:00;10.93;;;1.65;;
22191;SDS011;11261;52.456;10.850;2023-12-20T07:12:28;10.10;;;2.35;;
22191;SDS011;11261;52.456;10.850;2023-12-20T07:14:58;9.25;;;2.17;;
22191;SDS011;11261;52.456;10.850;2023-12-20T07:17:26;16.58;;;2.17;;
22191;SDS011;11261;52.456;10.850;2023-12-20T07:19:55;8.05;;;1.83;;
22191;SDS011;11261;52.456;10.850;2023-12-20T07:22:24;8.35;;;2.03;;
22191;SDS011;11261;52.456;10.850;2023-12-20T07:24:52;10.48;;;1.50;;
22191;SDS011;11261;52.456;10.850;2023-12-20T07:27:21;11.00;;;2.13;;
22191;SDS011;11261;52.456;10.850;2023-12-20T07:29:49;10.00;;;1.88;;
22191;SDS011;11261;52.456;10.850;2023-12-20T07:32:19;12.00;;;2.13;;
22191;SDS011;11261;52.456;10.850;2023-12-20T07:34:47;8.27;;;2.22;;
22191;SDS011;11261;52.456;10.850;2023-12-20T07:37:16;4.70;;;1.67;;
22191;SDS011;11261;52.456;10.850;2023-12-20T07:39:45;2.70;;;1.08;;
22191;SDS011;11261;52.456;10.850;2023-12-20T07:42:13;15.35;;;2.40;;
22191;SDS011;11261;52.456;10.850;2023-12-20T07:44:42;8.95;;;2.15;;
22191;SDS011;11261;52.456;10.850;2023-12-20T07:47:10;5.72;;;1.48;;
22191;SDS011;11261;52.456;10.850;2023-12-20T07:49:43;9.10;;;1.35;;
22191;SDS011;11261;52.456;10.850;2023-12-20T07:52:12;2.03;;;0.90;;
22191;SDS011;11261;52.456;10.850;2023-12-20T07:54:41;7.93;;;2.38;;
22191;SDS011;11261;52.456;10.850;2023-12-20T07:57:10;5.88;;;1.00;;
22191;SDS011;11261;52.456;10.850;2023-12-20T07:59:39;8.15;;;1.20;;
22191;SDS011;11261;52.456;10.850;2023-12-20T08:02:08;11.95;;;1.73;;
22191;SDS011;11261;52.456;10.850;2023-12-20T08:04:36;6.93;;;1.38;;
22191;SDS011;11261;52.456;10.850;2023-12-20T08:07:06;9.90;;;1.52;;
22191;SDS011;11261;52.456;10.850;2023-12-20T08:09:35;2.53;;;0.88;;
22191;SDS011;11261;52.456;10.850;2023-12-20T08:12:03;9.13;;;2.55;;
22191;SDS011;11261;52.456;10.850;2023-12-20T08:14:32;4.80;;;1.40;;
22191;SDS011;11261;52.456;10.850;2023-12-20T08:17:00;5.65;;;1.85;;
22191;SDS011;11261;52.456;10.850;2023-12-20T08:19:29;2.55;;;1.30;;
22191;SDS011;11261;52.456;10.850;2023-12-20T08:21:58;6.88;;;2.05;;
22191;SDS011;11261;52.456;10.850;2023-12-20T08:24:28;17.40;;;2.53;;
22191;SDS011;11261;52.456;10.850;2023-12-20T08:26:58;2.78;;;1.08;;
22191;SDS011;11261;52.456;10.850;2023-12-20T08:29:26;9.63;;;2.20;;
22191;SDS011;11261;52.456;10.850;2023-12-20T08:31:55;13.23;;;2.65;;
22191;SDS011;11261;52.456;10.850;2023-12-20T08:34:24;7.13;;;1.90;;
22191;SDS011;11261;52.456;10.850;2023-12-20T08:36:52;8.77;;;1.85;;
22191;SDS011;11261;52.456;10.850;2023-12-20T08:39:21;6.47;;;2.03;;
22191;SDS011;11261;52.456;10.850;2023-12-20T08:41:51;9.52;;;2.28;;
22191;SDS011;11261;52.456;10.850;2023-12-20T08:44:19;4.80;;;1.30;;
22191;SDS011;11261;52.456;10.850;2023-12-20T08:46:49;9.00;;;2.47;;
22191;SDS011;11261;52.456;10.850;2023-12-20T08:49:17;9.50;;;2.47;;
22191;SDS011;11261;52.456;10.850;2023-12-20T08:51:46;4.68;;;1.83;;
22191;SDS011;11261;52.456;10.850;2023-12-20T08:54:15;5.45;;;1.52;;
22191;SDS011;11261;52.456;10.850;2023-12-20T08:56:43;8.50;;;1.95;;
22191;SDS011;11261;52.456;10.850;2023-12-20T08:59:14;4.90;;;1.45;;
22191;SDS011;11261;52.456;10.850;2023-12-20T09:01:42;5.20;;;1.60;;
22191;SDS011;11261;52.456;10.850;2023-12-20T09:04:12;3.92;;;1.38;;
22191;SDS011;11261;52.456;10.850;2023-12-20T09:06:41;13.23;;;1.67;;
22191;SDS011;11261;52.456;10.850;2023-12-20T09:09:11;8.70;;;2.30;;
22191;SDS011;11261;52.456;10.850;2023-12-20T09:11:41;4.00;;;1.15;;
22191;SDS011;11261;52.456;10.850;2023-12-20T09:14:09;3.88;;;1.30;;
22191;SDS011;11261;52.456;10.850;2023-12-20T09:16:40;6.28;;;1.38;;
22191;SDS011;11261;52.456;10.850;2023-12-20T09:19:08;2.60;;;1.33;;
22191;SDS011;11261;52.456;10.850;2023-12-20T09:21:37;3.90;;;1.33;;
22191;SDS011;11261;52.456;10.850;2023-12-20T09:24:05;10.43;;;2.03;;
22191;SDS011;11261;52.456;10.850;2023-12-20T09:26:35;6.43;;;2.53;;
22191;SDS011;11261;52.456;10.850;2023-12-20T09:29:03;6.68;;;2.00;;
22191;SDS011;11261;52.456;10.850;2023-12-20T09:31:35;7.88;;;2.10;;
22191;SDS011;11261;52.456;10.850;2023-12-20T09:34:06;2.83;;;1.13;;
22191;SDS011;11261;52.456;10.850;2023-12-20T09:36:34;11.40;;;2.15;;
22191;SDS011;11261;52.456;10.850;2023-12-20T09:39:03;2.47;;;1.67;;
22191;SDS011;11261;52.456;10.850;2023-12-20T09:41:33;8.43;;;2.28;;
22191;SDS011;11261;52.456;10.850;2023-12-20T09:44:05;5.07;;;1.30;;
22191;SDS011;11261;52.456;10.850;2023-12-20T09:46:35;10.27;;;2.08;;
22191;SDS011;11261;52.456;10.850;2023-12-20T09:49:11;8.85;;;2.47;;
22191;SDS011;11261;52.456;10.850;2023-12-20T09:51:41;4.00;;;1.73;;
22191;SDS011;11261;52.456;10.850;2023-12-20T09:54:10;14.48;;;2.63;;
22191;SDS011;11261;52.456;10.850;2023-12-20T09:56:38;5.30;;;1.45;;
22191;SDS011;11261;52.456;10.850;2023-12-20T09:59:07;8.63;;;2.10;;
22191;SDS011;11261;52.456;10.850;2023-12-20T10:01:35;10.07;;;1.52;;
22191;SDS011;11261;52.456;10.850;2023-12-20T10:04:06;10.43;;;2.15;;
22191;SDS011;11261;52.456;10.850;2023-12-20T10:06:53;4.90;;;1.85;;
22191;SDS011;11261;52.456;10.850;2023-12-20T10:09:23;9.43;;;2.42;;
22191;SDS011;11261;52.456;10.850;2023-12-20T10:11:54;11.20;;;1.35;;
22191;SDS011;11261;52.456;10.850;2023-12-20T10:14:23;6.07;;;1.90;;
22191;SDS011;11261;52.456;10.850;2023-12-20T10:16:52;5.22;;;1.63;;
22191;SDS011;11261;52.456;10.850;2023-12-20T10:19:22;10.00;;;2.80;;
22191;SDS011;11261;52.456;10.850;2023-12-20T10:21:50;5.28;;;2.05;;
22191;SDS011;11261;52.456;10.850;2023-12-20T10:24:21;3.50;;;1.48;;
22191;SDS011;11261;52.456;10.850;2023-12-20T10:27:00;11.18;;;2.88;;
22191;SDS011;11261;52.456;10.850;2023-12-20T10:29:32;7.40;;;2.03;;
22191;SDS011;11261;52.456;10.850;2023-12-20T10:32:23;8.25;;;2.28;;
22191;SDS011;11261;52.456;10.850;2023-12-20T10:34:52;7.63;;;1.90;;
22191;SDS011;11261;52.456;10.850;2023-12-20T10:37:24;6.10;;;1.98;;
22191;SDS011;11261;52.456;10.850;2023-12-20T10:39:53;7.50;;;1.88;;
22191;SDS011;11261;52.456;10.850;2023-12-20T10:42:25;8.32;;;2.50;;
22191;SDS011;11261;52.456;10.850;2023-12-20T10:44:54;5.18;;;1.85;;
22191;SDS011;11261;52.456;10.850;2023-12-20T10:47:23;3.63;;;1.80;;
22191;SDS011;11261;52.456;10.850;2023-12-20T10:49:57;7.78;;;1.95;;
22191;SDS011;11261;52.456;10.850;2023-12-20T10:52:28;6.68;;;1.83;;
22191;SDS011;11261;52.456;10.850;2023-12-20T10:55:00;2.20;;;1.25;;
22191;SDS011;11261;52.456;10.850;2023-12-20T10:57:28;8.88;;;2.28;;
22191;SDS011;11261;52.456;10.850;2023-12-20T10:59:58;7.93;;;2.42;;
22191;SDS011;11261;52.456;10.850;2023-12-20T11:02:31;5.85;;;1.77;;
22191;SDS011;11261;52.456;10.850;2023-12-20T11:05:03;6.75;;;2.50;;
22191;SDS011;11261;52.456;10.850;2023-12-20T11:07:41;8.10;;;1.80;;
22191;SDS011;11261;52.456;10.850;2023-12-20T11:10:15;8.27;;;2.55;;
22191;SDS011;11261;52.456;10.850;2023-12-20T11:12:49;5.78;;;2.40;;
22191;SDS011;11261;52.456;10.850;2023-12-20T11:15:22;8.63;;;2.00;;
22191;SDS011;11261;52.456;10.850;2023-12-20T11:17:56;5.65;;;2.13;;
22191;SDS011;11261;52.456;10.850;2023-12-20T11:20:34;12.27;;;2.83;;
22191;SDS011;11261;52.456;10.850;2023-12-20T11:23:06;9.38;;;2.60;;
22191;SDS011;11261;52.456;10.850;2023-12-20T11:25:48;9.05;;;2.25;;
22191;SDS011;11261;52.456;10.850;2023-12-20T11:28:20;6.28;;;1.65;;
22191;SDS011;11261;52.456;10.850;2023-12-20T11:30:49;5.57;;;1.65;;
22191;SDS011;11261;52.456;10.850;2023-12-20T11:33:22;4.05;;;1.60;;
22191;SDS011;11261;52.456;10.850;2023-12-20T11:35:55;8.35;;;1.60;;
22191;SDS011;11261;52.456;10.850;2023-12-20T11:38:27;3.22;;;1.40;;
22191;SDS011;11261;52.456;10.850;2023-12-20T11:40:56;7.00;;;1.80;;
22191;SDS011;11261;52.456;10.850;2023-12-20T11:43:30;8.32;;;2.00;;
22191;SDS011;11261;52.456;10.850;2023-12-20T11:46:03;2.72;;;1.13;;
22191;SDS011;11261;52.456;10.850;2023-12-20T11:48:34;3.63;;;1.38;;
22191;SDS011;11261;52.456;10.850;2023-12-20T11:51:08;3.45;;;1.40;;
22191;SDS011;11261;52.456;10.850;2023-12-20T11:53:39;9.48;;;2.30;;
22191;SDS011;11261;52.456;10.850;2023-12-20T11:56:08;5.57;;;2.05;;
22191;SDS011;11261;52.456;10.850;2023-12-20T11:58:39;6.85;;;1.88;;
22191;SDS011;11261;52.456;10.850;2023-12-20T12:01:07;4.60;;;1.88;;
22191;SDS011;11261;52.456;10.850;2023-12-20T12:03:36;8.20;;;2.83;;
22191;SDS011;11261;52.456;10.850;2023-12-20T12:06:04;7.95;;;2.38;;
22191;SDS011;11261;52.456;10.850;2023-12-20T12:08:35;1.45;;;1.08;;
22191;SDS011;11261;52.456;10.850;2023-12-20T12:11:05;4.15;;;1.50;;
22191;SDS011;11261;52.456;10.850;2023-12-20T12:13:34;2.85;;;1.50;;
22191;SDS011;11261;52.456;10.850;2023-12-20T12:16:03;5.13;;;1.20;;
22191;SDS011;11261;52.456;10.850;2023-12-20T12:18:32;4.78;;;1.55;;
22191;SDS011;11261;52.456;10.850;2023-12-20T12:21:01;3.20;;;0.65;;
22191;SDS011;11261;52.456;10.850;2023-12-20T12:23:38;1.80;;;0.60;;
22191;SDS011;11261;52.456;10.850;2023-12-20T12:26:08;1.98;;;0.50;;
22191;SDS011;11261;52.456;10.850;2023-12-20T12:28:37;2.97;;;0.60;;
22191;SDS011;11261;52.456;10.850;2023-12-20T12:31:09;2.75;;;0.60;;
22191;SDS011;11261;52.456;10.850;2023-12-20T12:33:42;0.60;;;0.45;;
22191;SDS011;11261;52.456;10.850;2023-12-20T12:36:12;0.40;;;0.40;;
22191;SDS011;11261;52.456;10.850;2023-12-20T12:38:43;3.00;;;0.80;;
22191;SDS011;11261;52.456;10.850;2023-12-20T12:41:14;1.48;;;0.40;;
22191;SDS011;11261;52.456;10.850;2023-12-20T12:43:42;2.42;;;0.47;;
22191;SDS011;11261;52.456;10.850;2023-12-20T12:46:11;1.50;;;0.50;;
22191;SDS011;11261;52.456;10.850;2023-12-20T12:48:40;0.60;;;0.47;;
22191;SDS011;11261;52.456;10.850;2023-12-20T12:51:12;3.85;;;0.80;;
22191;SDS011;11261;52.456;10.850;2023-12-20T12:53:41;1.65;;;0.50;;
22191;SDS011;11261;52.456;10.850;2023-12-20T12:56:09;0.68;;;0.50;;
22191;SDS011;11261;52.456;10.850;2023-12-20T12:58:41;4.07;;;0.80;;
22191;SDS011;11261;52.456;10.850;2023-12-20T13:01:10;1.50;;;0.52;;
22191;SDS011;11261;52.456;10.850;2023-12-20T13:03:38;3.55;;;0.90;;
22191;SDS011;11261;52.456;10.850;2023-12-20T13:06:07;2.58;;;0.80;;
22191;SDS011;11261;52.456;10.850;2023-12-20T13:08:35;0.70;;;0.60;;
22191;SDS011;11261;52.456;10.850;2023-12-20T13:11:04;1.38;;;0.80;;
22191;SDS011;11261;52.456;10.850;2023-12-20T13:13:32;1.77;;;0.80;;
22191;SDS011;11261;52.456;10.850;2023-12-20T13:16:02;2.58;;;0.93;;
22191;SDS011;11261;52.456;10.850;2023-12-20T13:18:31;2.53;;;1.02;;
22191;SDS011;11261;52.456;10.850;2023-12-20T13:21:00;2.80;;;1.13;;
22191;SDS011;11261;52.456;10.850;2023-12-20T13:23:28;3.83;;;1.02;;
22191;SDS011;11261;52.456;10.850;2023-12-20T13:25:57;2.58;;;1.05;;
22191;SDS011;11261;52.456;10.850;2023-12-20T13:28:26;5.03;;;1.10;;
22191;SDS011;11261;52.456;10.850;2023-12-20T13:30:55;4.55;;;1.45;;
22191;SDS011;11261;52.456;10.850;2023-12-20T13:33:25;2.95;;;1.15;;
22191;SDS011;11261;52.456;10.850;2023-12-20T13:35:53;8.18;;;1.48;;
22191;SDS011;11261;52.456;10.850;2023-12-20T13:38:23;4.20;;;1.20;;
22191;SDS011;11261;52.456;10.850;2023-12-20T13:40:51;2.50;;;1.20;;
22191;SDS011;11261;52.456;10.850;2023-12-20T13:43:20;2.95;;;1.40;;
22191;SDS011;11261;52.456;10.850;2023-12-20T13:45:49;6.85;;;1.42;;
22191;SDS011;11261;52.456;10.850;2023-12-20T13:48:17;2.05;;;0.77;;
22191;SDS011;11261;52.456;10.850;2023-12-20T13:50:48;5.68;;;1.17;;
22191;SDS011;11261;52.456;10.850;2023-12-20T13:53:16;4.40;;;1.00;;
22191;SDS011;11261;52.456;10.850;2023-12-20T13:55:45;5.53;;;0.88;;
22191;SDS011;11261;52.456;10.850;2023-12-20T13:58:13;2.25;;;1.02;;
22191;SDS011;11261;52.456;10.850;2023-12-20T14:00:42;3.45;;;0.82;;
22191;SDS011;11261;52.456;10.850;2023-12-20T14:03:11;2.55;;;1.05;;
22191;SDS011;11261;52.456;10.850;2023-12-20T14:05:39;7.68;;;0.93;;
22191;SDS011;11261;52.456;10.850;2023-12-20T14:08:09;0.75;;;0.55;;
22191;SDS011;11261;52.456;10.850;2023-12-20T14:10:38;2.22;;;0.77;;
22191;SDS011;11261;52.456;10.850;2023-12-20T14:13:06;2.20;;;0.98;;
22191;SDS011;11261;52.456;10.850;2023-12-20T14:15:35;3.80;;;0.68;;
22191;SDS011;11261;52.456;10.850;2023-12-20T14:18:04;9.13;;;1.25;;
22191;SDS011;11261;52.456;10.850;2023-12-20T14:20:34;8.90;;;1.00;;
22191;SDS011;11261;52.456;10.850;2023-12-20T14:23:03;1.85;;;0.68;;
22191;SDS011;11261;52.456;10.850;2023-12-20T14:25:33;2.90;;;0.85;;
22191;SDS011;11261;52.456;10.850;2023-12-20T14:28:17;4.45;;;0.88;;
22191;SDS011;11261;52.456;10.850;2023-12-20T14:30:45;7.85;;;1.45;;
22191;SDS011;11261;52.456;10.850;2023-12-20T14:33:16;5.95;;;1.20;;
22191;SDS011;11261;52.456;10.850;2023-12-20T14:35:46;3.20;;;0.93;;
22191;SDS011;11261;52.456;10.850;2023-12-20T14:38:14;3.03;;;1.35;;
22191;SDS011;11261;52.456;10.850;2023-12-20T14:40:44;3.90;;;0.90;;
22191;SDS011;11261;52.456;10.850;2023-12-20T14:43:12;5.15;;;1.13;;
22191;SDS011;11261;52.456;10.850;2023-12-20T14:45:43;2.70;;;0.65;;
22191;SDS011;11261;52.456;10.850;2023-12-20T14:48:11;6.95;;;1.40;;